sensor_id;sensor_type;location;lat;lon;timestamp;P1;durP1;ratioP1;P2;durP2;ratioP2
45812;SDS011;31519;45.408;10.962;2023-05-01T00:01:52;6.38;;;2.60;;
45812;SDS011;31519;45.408;10.962;2023-05-01T00:04:20;5.72;;;3.30;;
45812;SDS011;31519;45.408;10.962;2023-05-01T00:06:49;7.07;;;2.40;;
45812;SDS011;31519;45.408;10.962;2023-05-01T00:09:17;2.13;;;1.83;;
45812;SDS011;31519;45.408;10.962;2023-05-01T00:11:46;4.03;;;1.70;;
45812;SDS011;31519;45.408;10.962;2023-05-01T00:14:27;3.35;;;1.77;;
45812;SDS011;31519;45.408;10.962;2023-05-01T00:16:56;1.50;;;1.40;;
45812;SDS011;31519;45.408;10.962;2023-05-01T00:19:24;1.70;;;1.42;;
45812;SDS011;31519;45.408;10.962;2023-05-01T00:21:52;5.25;;;1.60;;
45812;SDS011;31519;45.408;10.962;2023-05-01T00:24:20;8.98;;;1.77;;
45812;SDS011;31519;45.408;10.962;2023-05-01T00:26:49;3.15;;;1.58;;
45812;SDS011;31519;45.408;10.962;2023-05-01T00:29:17;2.47;;;1.70;;
45812;SDS011;31519;45.408;10.962;2023-05-01T00:31:45;6.75;;;2.53;;
45812;SDS011;31519;45.408;10.962;2023-05-01T00:34:13;4.88;;;2.08;;
45812;SDS011;31519;45.408;10.962;2023-05-01T00:36:42;3.35;;;1.90;;
45812;SDS011;31519;45.408;10.962;2023-05-01T00:39:10;2.03;;;1.77;;
45812;SDS011;31519;45.408;10.962;2023-05-01T00:41:38;4.78;;;2.10;;
45812;SDS011;31519;45.408;10.962;2023-05-01T00:44:07;4.72;;;2.50;;
45812;SDS011;31519;45.408;10.962;2023-05-01T00:46:35;4.75;;;2.55;;
45812;SDS011;31519;45.408;10.962;2023-05-01T00:49:04;4.65;;;2.55;;
45812;SDS011;31519;45.408;10.962;2023-05-01T00:51:32;4.18;;;2.75;;
45812;SDS011;31519;45.408;10.962;2023-05-01T00:54:01;2.92;;;2.22;;
45812;SDS011;31519;45.408;10.962;2023-05-01T00:56:30;3.08;;;2.65;;
45812;SDS011;31519;45.408;10.962;2023-05-01T00:58:58;3.85;;;2.60;;
45812;SDS011;31519;45.408;10.962;2023-05-01T01:01:26;3.72;;;2.75;;
45812;SDS011;31519;45.408;10.962;2023-05-01T01:03:55;5.13;;;2.28;;
45812;SDS011;31519;45.408;10.962;2023-05-01T01:06:35;4.85;;;2.20;;
45812;SDS011;31519;45.408;10.962;2023-05-01T01:09:35;3.95;;;2.28;;
45812;SDS011;31519;45.408;10.962;2023-05-01T01:12:20;2.78;;;2.20;;
45812;SDS011;31519;45.408;10.962;2023-05-01T01:34:19;3.58;;;2.50;;
45812;SDS011;31519;45.408;10.962;2023-05-01T01:36:59;2.45;;;2.00;;
45812;SDS011;31519;45.408;10.962;2023-05-01T01:42:29;2.70;;;1.92;;
45812;SDS011;31519;45.408;10.962;2023-05-01T01:45:06;10.00;;;2.60;;
45812;SDS011;31519;45.408;10.962;2023-05-01T01:47:41;6.68;;;2.65;;
45812;SDS011;31519;45.408;10.962;2023-05-01T01:50:11;5.30;;;2.78;;
45812;SDS011;31519;45.408;10.962;2023-05-01T01:52:42;5.35;;;2.60;;
45812;SDS011;31519;45.408;10.962;2023-05-01T01:55:16;4.72;;;2.40;;
45812;SDS011;31519;45.408;10.962;2023-05-01T01:57:49;24.02;;;2.83;;
45812;SDS011;31519;45.408;10.962;2023-05-01T02:00:19;3.63;;;2.40;;
45812;SDS011;31519;45.408;10.962;2023-05-01T02:02:50;9.68;;;2.53;;
45812;SDS011;31519;45.408;10.962;2023-05-01T02:05:21;8.93;;;2.92;;
45812;SDS011;31519;45.408;10.962;2023-05-01T02:07:51;7.05;;;2.40;;
45812;SDS011;31519;45.408;10.962;2023-05-01T02:10:21;3.33;;;2.60;;
45812;SDS011;31519;45.408;10.962;2023-05-01T02:12:50;3.85;;;2.42;;
45812;SDS011;31519;45.408;10.962;2023-05-01T02:15:20;4.85;;;2.90;;
45812;SDS011;31519;45.408;10.962;2023-05-01T02:17:50;4.47;;;2.33;;
45812;SDS011;31519;45.408;10.962;2023-05-01T02:20:21;5.15;;;2.72;;
45812;SDS011;31519;45.408;10.962;2023-05-01T02:22:49;2.20;;;2.00;;
45812;SDS011;31519;45.408;10.962;2023-05-01T02:25:20;6.65;;;2.65;;
45812;SDS011;31519;45.408;10.962;2023-05-01T02:27:55;5.70;;;2.50;;
45812;SDS011;31519;45.408;10.962;2023-05-01T02:30:26;4.07;;;2.50;;
45812;SDS011;31519;45.408;10.962;2023-05-01T02:32:55;5.22;;;2.60;;
45812;SDS011;31519;45.408;10.962;2023-05-01T02:35:24;7.07;;;2.72;;
45812;SDS011;31519;45.408;10.962;2023-05-01T02:37:52;4.60;;;2.30;;
45812;SDS011;31519;45.408;10.962;2023-05-01T02:40:21;5.28;;;2.33;;
45812;SDS011;31519;45.408;10.962;2023-05-01T02:42:49;4.03;;;2.35;;
45812;SDS011;31519;45.408;10.962;2023-05-01T02:45:21;2.22;;;1.92;;
45812;SDS011;31519;45.408;10.962;2023-05-01T02:47:52;3.33;;;2.70;;
45812;SDS011;31519;45.408;10.962;2023-05-01T02:50:24;2.70;;;2.28;;
45812;SDS011;31519;45.408;10.962;2023-05-01T02:52:53;3.63;;;2.88;;
45812;SDS011;31519;45.408;10.962;2023-05-01T02:55:36;5.40;;;2.83;;
45812;SDS011;31519;45.408;10.962;2023-05-01T02:58:06;3.33;;;2.72;;
45812;SDS011;31519;45.408;10.962;2023-05-01T03:00:34;4.22;;;2.83;;
45812;SDS011;31519;45.408;10.962;2023-05-01T03:03:02;6.60;;;2.97;;
45812;SDS011;31519;45.408;10.962;2023-05-01T03:05:30;3.78;;;2.63;;
45812;SDS011;31519;45.408;10.962;2023-05-01T03:07:59;3.25;;;2.83;;
45812;SDS011;31519;45.408;10.962;2023-05-01T03:10:28;5.72;;;3.00;;
45812;SDS011;31519;45.408;10.962;2023-05-01T03:12:56;7.05;;;3.17;;
45812;SDS011;31519;45.408;10.962;2023-05-01T03:15:24;4.85;;;3.20;;
45812;SDS011;31519;45.408;10.962;2023-05-01T03:17:52;8.18;;;3.03;;
45812;SDS011;31519;45.408;10.962;2023-05-01T03:20:22;8.68;;;2.83;;
45812;SDS011;31519;45.408;10.962;2023-05-01T03:22:52;3.78;;;3.10;;
45812;SDS011;31519;45.408;10.962;2023-05-01T03:25:21;6.53;;;2.55;;
45812;SDS011;31519;45.408;10.962;2023-05-01T03:27:49;3.75;;;2.72;;
45812;SDS011;31519;45.408;10.962;2023-05-01T03:30:19;3.67;;;2.75;;
45812;SDS011;31519;45.408;10.962;2023-05-01T03:32:47;5.72;;;3.05;;
45812;SDS011;31519;45.408;10.962;2023-05-01T03:35:22;6.25;;;2.63;;
45812;SDS011;31519;45.408;10.962;2023-05-01T03:37:50;5.55;;;2.78;;
45812;SDS011;31519;45.408;10.962;2023-05-01T03:40:45;2.65;;;2.45;;
45812;SDS011;31519;45.408;10.962;2023-05-01T03:43:35;3.45;;;2.60;;
45812;SDS011;31519;45.408;10.962;2023-05-01T03:46:09;3.22;;;2.53;;
45812;SDS011;31519;45.408;10.962;2023-05-01T03:48:37;12.90;;;3.28;;
45812;SDS011;31519;45.408;10.962;2023-05-01T03:51:06;6.78;;;2.40;;
45812;SDS011;31519;45.408;10.962;2023-05-01T03:53:36;6.20;;;3.05;;
45812;SDS011;31519;45.408;10.962;2023-05-01T03:56:06;2.55;;;2.35;;
45812;SDS011;31519;45.408;10.962;2023-05-01T03:58:34;7.82;;;2.75;;
45812;SDS011;31519;45.408;10.962;2023-05-01T04:01:04;5.68;;;2.53;;
45812;SDS011;31519;45.408;10.962;2023-05-01T04:03:36;6.78;;;2.53;;
45812;SDS011;31519;45.408;10.962;2023-05-01T04:06:05;2.70;;;2.20;;
45812;SDS011;31519;45.408;10.962;2023-05-01T04:08:34;2.30;;;2.08;;
45812;SDS011;31519;45.408;10.962;2023-05-01T04:11:02;3.72;;;2.55;;
45812;SDS011;31519;45.408;10.962;2023-05-01T04:13:31;3.08;;;2.47;;
45812;SDS011;31519;45.408;10.962;2023-05-01T04:15:59;2.70;;;2.30;;
45812;SDS011;31519;45.408;10.962;2023-05-01T04:18:27;9.88;;;2.78;;
45812;SDS011;31519;45.408;10.962;2023-05-01T04:20:59;5.40;;;2.38;;
45812;SDS011;31519;45.408;10.962;2023-05-01T04:23:27;4.38;;;2.67;;
45812;SDS011;31519;45.408;10.962;2023-05-01T04:25:58;5.75;;;2.70;;
45812;SDS011;31519;45.408;10.962;2023-05-01T04:28:26;6.20;;;1.95;;
45812;SDS011;31519;45.408;10.962;2023-05-01T04:30:57;6.05;;;2.65;;
45812;SDS011;31519;45.408;10.962;2023-05-01T04:33:25;4.35;;;2.33;;
45812;SDS011;31519;45.408;10.962;2023-05-01T04:35:54;3.47;;;2.42;;
45812;SDS011;31519;45.408;10.962;2023-05-01T04:38:22;2.55;;;1.90;;
45812;SDS011;31519;45.408;10.962;2023-05-01T04:40:54;3.70;;;2.40;;
45812;SDS011;31519;45.408;10.962;2023-05-01T04:43:22;4.30;;;2.60;;
45812;SDS011;31519;45.408;10.962;2023-05-01T04:45:51;3.15;;;2.22;;
45812;SDS011;31519;45.408;10.962;2023-05-01T04:48:21;4.18;;;2.22;;
45812;SDS011;31519;45.408;10.962;2023-05-01T04:50:49;5.60;;;2.75;;
45812;SDS011;31519;45.408;10.962;2023-05-01T04:53:17;2.95;;;2.40;;
45812;SDS011;31519;45.408;10.962;2023-05-01T04:55:46;9.90;;;2.72;;
45812;SDS011;31519;45.408;10.962;2023-05-01T04:58:15;6.50;;;2.38;;
45812;SDS011;31519;45.408;10.962;2023-05-01T05:00:46;3.58;;;2.40;;
45812;SDS011;31519;45.408;10.962;2023-05-01T05:03:20;5.10;;;2.40;;
45812;SDS011;31519;45.408;10.962;2023-05-01T05:05:48;3.05;;;2.28;;
45812;SDS011;31519;45.408;10.962;2023-05-01T05:08:16;5.28;;;2.72;;
45812;SDS011;31519;45.408;10.962;2023-05-01T05:10:57;6.10;;;2.72;;
45812;SDS011;31519;45.408;10.962;2023-05-01T05:13:33;9.40;;;2.28;;
45812;SDS011;31519;45.408;10.962;2023-05-01T05:16:06;8.27;;;2.90;;
45812;SDS011;31519;45.408;10.962;2023-05-01T05:18:34;3.15;;;2.53;;
45812;SDS011;31519;45.408;10.962;2023-05-01T05:21:03;4.85;;;2.50;;
45812;SDS011;31519;45.408;10.962;2023-05-01T05:23:32;3.38;;;2.30;;
45812;SDS011;31519;45.408;10.962;2023-05-01T05:26:00;5.43;;;2.80;;
45812;SDS011;31519;45.408;10.962;2023-05-01T05:28:30;6.80;;;2.72;;
45812;SDS011;31519;45.408;10.962;2023-05-01T05:30:58;4.40;;;2.40;;
45812;SDS011;31519;45.408;10.962;2023-05-01T05:33:26;2.60;;;2.35;;
45812;SDS011;31519;45.408;10.962;2023-05-01T05:35:57;2.95;;;2.42;;
45812;SDS011;31519;45.408;10.962;2023-05-01T05:38:33;3.83;;;2.20;;
45812;SDS011;31519;45.408;10.962;2023-05-01T05:41:03;7.10;;;2.40;;
45812;SDS011;31519;45.408;10.962;2023-05-01T05:43:31;10.35;;;2.55;;
45812;SDS011;31519;45.408;10.962;2023-05-01T05:45:59;4.15;;;2.90;;
45812;SDS011;31519;45.408;10.962;2023-05-01T05:48:30;10.40;;;3.08;;
45812;SDS011;31519;45.408;10.962;2023-05-01T05:50:58;3.95;;;2.58;;
45812;SDS011;31519;45.408;10.962;2023-05-01T05:53:26;6.43;;;2.53;;
45812;SDS011;31519;45.408;10.962;2023-05-01T05:55:54;4.15;;;2.75;;
45812;SDS011;31519;45.408;10.962;2023-05-01T05:58:22;3.50;;;2.83;;
45812;SDS011;31519;45.408;10.962;2023-05-01T06:00:51;3.50;;;2.40;;
45812;SDS011;31519;45.408;10.962;2023-05-01T06:03:22;6.03;;;3.03;;
45812;SDS011;31519;45.408;10.962;2023-05-01T06:05:54;3.38;;;3.08;;
45812;SDS011;31519;45.408;10.962;2023-05-01T06:08:22;5.88;;;3.08;;
45812;SDS011;31519;45.408;10.962;2023-05-01T06:10:51;4.05;;;2.90;;
45812;SDS011;31519;45.408;10.962;2023-05-01T06:13:19;6.28;;;3.10;;
45812;SDS011;31519;45.408;10.962;2023-05-01T06:15:49;3.97;;;2.80;;
45812;SDS011;31519;45.408;10.962;2023-05-01T06:18:16;4.65;;;3.10;;
45812;SDS011;31519;45.408;10.962;2023-05-01T06:20:45;3.72;;;2.35;;
45812;SDS011;31519;45.408;10.962;2023-05-01T06:23:14;7.90;;;3.17;;
45812;SDS011;31519;45.408;10.962;2023-05-01T06:25:54;4.20;;;2.67;;
45812;SDS011;31519;45.408;10.962;2023-05-01T06:28:22;4.78;;;2.90;;
45812;SDS011;31519;45.408;10.962;2023-05-01T06:30:50;7.13;;;3.35;;
45812;SDS011;31519;45.408;10.962;2023-05-01T06:33:20;4.90;;;2.88;;
45812;SDS011;31519;45.408;10.962;2023-05-01T06:36:00;7.35;;;3.60;;
45812;SDS011;31519;45.408;10.962;2023-05-01T06:38:29;4.45;;;2.83;;
45812;SDS011;31519;45.408;10.962;2023-05-01T06:41:00;7.82;;;2.92;;
45812;SDS011;31519;45.408;10.962;2023-05-01T06:43:28;6.45;;;3.10;;
45812;SDS011;31519;45.408;10.962;2023-05-01T06:45:58;3.60;;;2.90;;
45812;SDS011;31519;45.408;10.962;2023-05-01T06:48:26;5.05;;;2.97;;
45812;SDS011;31519;45.408;10.962;2023-05-01T06:50:54;6.63;;;3.08;;
45812;SDS011;31519;45.408;10.962;2023-05-01T06:53:22;4.07;;;3.25;;
45812;SDS011;31519;45.408;10.962;2023-05-01T06:55:50;5.70;;;3.28;;
45812;SDS011;31519;45.408;10.962;2023-05-01T06:58:18;3.38;;;2.78;;
45812;SDS011;31519;45.408;10.962;2023-05-01T07:00:52;7.95;;;3.67;;
45812;SDS011;31519;45.408;10.962;2023-05-01T07:03:20;5.65;;;3.50;;
45812;SDS011;31519;45.408;10.962;2023-05-01T07:05:49;4.72;;;3.17;;
45812;SDS011;31519;45.408;10.962;2023-05-01T07:08:17;8.43;;;4.68;;
45812;SDS011;31519;45.408;10.962;2023-05-01T07:10:46;6.90;;;3.22;;
45812;SDS011;31519;45.408;10.962;2023-05-01T07:13:16;8.88;;;3.47;;
45812;SDS011;31519;45.408;10.962;2023-05-01T07:15:44;6.20;;;3.08;;
45812;SDS011;31519;45.408;10.962;2023-05-01T07:18:13;3.70;;;3.40;;
45812;SDS011;31519;45.408;10.962;2023-05-01T07:20:41;7.03;;;3.35;;
45812;SDS011;31519;45.408;10.962;2023-05-01T07:23:09;3.97;;;3.13;;
45812;SDS011;31519;45.408;10.962;2023-05-01T07:25:37;8.50;;;3.70;;
45812;SDS011;31519;45.408;10.962;2023-05-01T07:28:07;4.05;;;2.80;;
45812;SDS011;31519;45.408;10.962;2023-05-01T07:30:36;5.40;;;2.50;;
45812;SDS011;31519;45.408;10.962;2023-05-01T07:33:04;4.07;;;2.70;;
45812;SDS011;31519;45.408;10.962;2023-05-01T07:35:32;6.28;;;2.83;;
45812;SDS011;31519;45.408;10.962;2023-05-01T07:38:00;5.38;;;3.15;;
45812;SDS011;31519;45.408;10.962;2023-05-01T07:40:33;4.57;;;3.10;;
45812;SDS011;31519;45.408;10.962;2023-05-01T07:43:01;6.70;;;2.97;;
45812;SDS011;31519;45.408;10.962;2023-05-01T07:45:31;5.82;;;3.13;;
45812;SDS011;31519;45.408;10.962;2023-05-01T07:47:59;3.38;;;2.58;;
45812;SDS011;31519;45.408;10.962;2023-05-01T07:50:27;3.40;;;2.70;;
45812;SDS011;31519;45.408;10.962;2023-05-01T07:52:55;8.38;;;2.90;;
45812;SDS011;31519;45.408;10.962;2023-05-01T07:55:24;3.45;;;2.55;;
45812;SDS011;31519;45.408;10.962;2023-05-01T08:16:52;3.58;;;2.53;;
45812;SDS011;31519;45.408;10.962;2023-05-01T08:19:22;7.18;;;3.03;;
45812;SDS011;31519;45.408;10.962;2023-05-01T08:21:50;11.43;;;3.75;;
45812;SDS011;31519;45.408;10.962;2023-05-01T08:24:18;10.10;;;3.58;;
45812;SDS011;31519;45.408;10.962;2023-05-01T08:26:47;12.60;;;3.17;;
45812;SDS011;31519;45.408;10.962;2023-05-01T08:29:15;3.50;;;2.80;;
45812;SDS011;31519;45.408;10.962;2023-05-01T08:31:43;5.38;;;3.00;;
45812;SDS011;31519;45.408;10.962;2023-05-01T08:34:12;4.25;;;2.80;;
45812;SDS011;31519;45.408;10.962;2023-05-01T08:36:40;3.78;;;2.63;;
45812;SDS011;31519;45.408;10.962;2023-05-01T08:39:08;10.20;;;3.72;;
45812;SDS011;31519;45.408;10.962;2023-05-01T08:41:36;7.22;;;3.00;;
45812;SDS011;31519;45.408;10.962;2023-05-01T08:44:05;5.45;;;3.03;;
45812;SDS011;31519;45.408;10.962;2023-05-01T08:49:16;3.35;;;2.65;;
45812;SDS011;31519;45.408;10.962;2023-05-01T08:51:46;7.10;;;2.95;;
45812;SDS011;31519;45.408;10.962;2023-05-01T08:54:19;3.17;;;2.60;;
45812;SDS011;31519;45.408;10.962;2023-05-01T08:56:48;3.25;;;2.55;;
45812;SDS011;31519;45.408;10.962;2023-05-01T08:59:20;5.63;;;2.63;;
45812;SDS011;31519;45.408;10.962;2023-05-01T09:01:51;6.43;;;2.95;;
45812;SDS011;31519;45.408;10.962;2023-05-01T09:04:20;4.00;;;2.90;;
45812;SDS011;31519;45.408;10.962;2023-05-01T09:06:48;5.80;;;2.67;;
45812;SDS011;31519;45.408;10.962;2023-05-01T09:09:17;3.88;;;2.53;;
45812;SDS011;31519;45.408;10.962;2023-05-01T09:11:45;7.35;;;2.50;;
45812;SDS011;31519;45.408;10.962;2023-05-01T09:14:13;4.50;;;2.72;;
45812;SDS011;31519;45.408;10.962;2023-05-01T09:16:41;8.27;;;2.72;;
45812;SDS011;31519;45.408;10.962;2023-05-01T09:19:11;6.88;;;2.65;;
45812;SDS011;31519;45.408;10.962;2023-05-01T09:21:39;8.18;;;2.60;;
45812;SDS011;31519;45.408;10.962;2023-05-01T09:24:09;4.63;;;2.60;;
45812;SDS011;31519;45.408;10.962;2023-05-01T09:26:40;3.42;;;1.95;;
45812;SDS011;31519;45.408;10.962;2023-05-01T09:29:09;7.90;;;2.35;;
45812;SDS011;31519;45.408;10.962;2023-05-01T09:31:37;11.15;;;2.80;;
45812;SDS011;31519;45.408;10.962;2023-05-01T09:34:07;9.38;;;2.35;;
45812;SDS011;31519;45.408;10.962;2023-05-01T09:36:35;3.17;;;2.10;;
45812;SDS011;31519;45.408;10.962;2023-05-01T09:39:04;6.03;;;2.22;;
45812;SDS011;31519;45.408;10.962;2023-05-01T09:41:32;3.28;;;2.50;;
45812;SDS011;31519;45.408;10.962;2023-05-01T09:44:01;8.85;;;3.20;;
45812;SDS011;31519;45.408;10.962;2023-05-01T09:46:30;4.38;;;2.88;;
45812;SDS011;31519;45.408;10.962;2023-05-01T09:49:09;5.53;;;2.50;;
45812;SDS011;31519;45.408;10.962;2023-05-01T09:51:37;4.63;;;2.78;;
45812;SDS011;31519;45.408;10.962;2023-05-01T09:54:15;4.40;;;2.58;;
45812;SDS011;31519;45.408;10.962;2023-05-01T09:56:46;4.55;;;2.53;;
45812;SDS011;31519;45.408;10.962;2023-05-01T09:59:17;3.83;;;2.42;;
45812;SDS011;31519;45.408;10.962;2023-05-01T10:01:46;3.30;;;2.85;;
45812;SDS011;31519;45.408;10.962;2023-05-01T10:04:17;4.93;;;2.50;;
45812;SDS011;31519;45.408;10.962;2023-05-01T10:06:59;2.90;;;2.47;;
45812;SDS011;31519;45.408;10.962;2023-05-01T10:09:41;4.30;;;2.30;;
45812;SDS011;31519;45.408;10.962;2023-05-01T10:12:09;2.85;;;2.30;;
45812;SDS011;31519;45.408;10.962;2023-05-01T10:14:48;2.88;;;2.50;;
45812;SDS011;31519;45.408;10.962;2023-05-01T10:17:18;6.82;;;2.35;;
45812;SDS011;31519;45.408;10.962;2023-05-01T10:19:47;4.25;;;2.60;;
45812;SDS011;31519;45.408;10.962;2023-05-01T10:22:16;4.85;;;2.45;;
45812;SDS011;31519;45.408;10.962;2023-05-01T10:24:44;4.30;;;2.50;;
45812;SDS011;31519;45.408;10.962;2023-05-01T10:27:12;5.55;;;2.30;;
45812;SDS011;31519;45.408;10.962;2023-05-01T10:29:41;5.10;;;2.78;;
45812;SDS011;31519;45.408;10.962;2023-05-01T10:32:11;3.63;;;2.88;;
45812;SDS011;31519;45.408;10.962;2023-05-01T10:34:41;5.32;;;2.40;;
45812;SDS011;31519;45.408;10.962;2023-05-01T10:37:25;4.05;;;2.40;;
45812;SDS011;31519;45.408;10.962;2023-05-01T10:40:24;4.72;;;2.47;;
45812;SDS011;31519;45.408;10.962;2023-05-01T10:45:47;8.02;;;2.83;;
45812;SDS011;31519;45.408;10.962;2023-05-01T10:51:21;9.73;;;2.25;;
45812;SDS011;31519;45.408;10.962;2023-05-01T10:56:40;3.03;;;2.30;;
45812;SDS011;31519;45.408;10.962;2023-05-01T10:59:09;8.02;;;2.67;;
45812;SDS011;31519;45.408;10.962;2023-05-01T11:01:40;3.60;;;2.20;;
45812;SDS011;31519;45.408;10.962;2023-05-01T11:09:35;3.00;;;2.10;;
45812;SDS011;31519;45.408;10.962;2023-05-01T11:12:07;5.18;;;2.00;;
45812;SDS011;31519;45.408;10.962;2023-05-01T11:20:08;7.22;;;2.40;;
45812;SDS011;31519;45.408;10.962;2023-05-01T11:22:43;4.10;;;2.65;;
45812;SDS011;31519;45.408;10.962;2023-05-01T11:25:16;3.70;;;2.03;;
45812;SDS011;31519;45.408;10.962;2023-05-01T11:27:47;4.25;;;2.65;;
45812;SDS011;31519;45.408;10.962;2023-05-01T11:30:17;4.65;;;2.20;;
45812;SDS011;31519;45.408;10.962;2023-05-01T11:32:46;4.63;;;2.50;;
45812;SDS011;31519;45.408;10.962;2023-05-01T11:37:44;5.95;;;2.25;;
45812;SDS011;31519;45.408;10.962;2023-05-01T11:40:20;3.95;;;2.00;;
45812;SDS011;31519;45.408;10.962;2023-05-01T11:42:52;9.13;;;2.42;;
45812;SDS011;31519;45.408;10.962;2023-05-01T11:45:35;2.17;;;2.00;;
45812;SDS011;31519;45.408;10.962;2023-05-01T11:48:13;3.92;;;2.25;;
45812;SDS011;31519;45.408;10.962;2023-05-01T11:50:42;4.63;;;2.10;;
45812;SDS011;31519;45.408;10.962;2023-05-01T11:53:12;7.80;;;2.95;;
45812;SDS011;31519;45.408;10.962;2023-05-01T11:55:42;2.88;;;2.63;;
45812;SDS011;31519;45.408;10.962;2023-05-01T11:58:11;6.78;;;2.42;;
45812;SDS011;31519;45.408;10.962;2023-05-01T12:00:41;6.18;;;2.30;;
45812;SDS011;31519;45.408;10.962;2023-05-01T12:03:12;2.88;;;2.03;;
45812;SDS011;31519;45.408;10.962;2023-05-01T12:05:42;2.08;;;1.85;;
45812;SDS011;31519;45.408;10.962;2023-05-01T12:08:18;3.15;;;1.67;;
45812;SDS011;31519;45.408;10.962;2023-05-01T12:10:55;2.60;;;2.10;;
45812;SDS011;31519;45.408;10.962;2023-05-01T12:13:24;2.33;;;2.00;;
45812;SDS011;31519;45.408;10.962;2023-05-01T12:15:53;1.70;;;1.60;;
45812;SDS011;31519;45.408;10.962;2023-05-01T12:18:23;3.05;;;2.35;;
45812;SDS011;31519;45.408;10.962;2023-05-01T12:20:52;6.65;;;1.75;;
45812;SDS011;31519;45.408;10.962;2023-05-01T12:23:32;4.30;;;2.00;;
45812;SDS011;31519;45.408;10.962;2023-05-01T12:26:14;4.32;;;1.70;;
45812;SDS011;31519;45.408;10.962;2023-05-01T12:29:00;3.45;;;1.77;;
45812;SDS011;31519;45.408;10.962;2023-05-01T12:31:30;1.83;;;1.65;;
45812;SDS011;31519;45.408;10.962;2023-05-01T12:34:00;3.97;;;2.28;;
45812;SDS011;31519;45.408;10.962;2023-05-01T12:36:30;2.42;;;1.48;;
45812;SDS011;31519;45.408;10.962;2023-05-01T12:39:04;1.77;;;1.67;;
45812;SDS011;31519;45.408;10.962;2023-05-01T12:41:40;3.83;;;1.83;;
45812;SDS011;31519;45.408;10.962;2023-05-01T12:44:23;6.22;;;1.88;;
45812;SDS011;31519;45.408;10.962;2023-05-01T12:49:26;2.97;;;2.00;;
45812;SDS011;31519;45.408;10.962;2023-05-01T12:51:56;5.97;;;1.60;;
45812;SDS011;31519;45.408;10.962;2023-05-01T12:54:33;3.47;;;1.77;;
45812;SDS011;31519;45.408;10.962;2023-05-01T12:59:38;3.05;;;1.38;;
45812;SDS011;31519;45.408;10.962;2023-05-01T13:02:11;5.13;;;1.40;;
45812;SDS011;31519;45.408;10.962;2023-05-01T13:04:43;1.85;;;1.38;;
45812;SDS011;31519;45.408;10.962;2023-05-01T13:07:15;2.95;;;1.92;;
45812;SDS011;31519;45.408;10.962;2023-05-01T13:09:56;5.43;;;2.60;;
45812;SDS011;31519;45.408;10.962;2023-05-01T13:12:26;5.47;;;3.28;;
45812;SDS011;31519;45.408;10.962;2023-05-01T13:14:55;8.02;;;2.80;;
45812;SDS011;31519;45.408;10.962;2023-05-01T13:17:30;5.32;;;2.67;;
45812;SDS011;31519;45.408;10.962;2023-05-01T13:20:03;2.70;;;2.10;;
45812;SDS011;31519;45.408;10.962;2023-05-01T13:22:35;3.00;;;1.60;;
45812;SDS011;31519;45.408;10.962;2023-05-01T13:25:14;3.92;;;2.00;;
45812;SDS011;31519;45.408;10.962;2023-05-01T13:27:49;5.30;;;2.70;;
45812;SDS011;31519;45.408;10.962;2023-05-01T13:30:19;2.22;;;2.03;;
45812;SDS011;31519;45.408;10.962;2023-05-01T13:32:57;2.55;;;2.00;;
45812;SDS011;31519;45.408;10.962;2023-05-01T13:35:26;5.13;;;1.80;;
45812;SDS011;31519;45.408;10.962;2023-05-01T13:37:54;4.25;;;1.65;;
45812;SDS011;31519;45.408;10.962;2023-05-01T13:40:22;11.95;;;3.35;;
45812;SDS011;31519;45.408;10.962;2023-05-01T13:42:52;7.53;;;4.05;;
45812;SDS011;31519;45.408;10.962;2023-05-01T13:45:20;5.57;;;2.85;;
45812;SDS011;31519;45.408;10.962;2023-05-01T13:47:49;4.45;;;2.22;;
45812;SDS011;31519;45.408;10.962;2023-05-01T13:50:18;8.57;;;2.03;;
45812;SDS011;31519;45.408;10.962;2023-05-01T13:52:46;5.82;;;1.80;;
45812;SDS011;31519;45.408;10.962;2023-05-01T13:55:15;2.40;;;2.17;;
45812;SDS011;31519;45.408;10.962;2023-05-01T13:57:44;8.00;;;1.65;;
45812;SDS011;31519;45.408;10.962;2023-05-01T14:00:15;1.98;;;1.70;;
45812;SDS011;31519;45.408;10.962;2023-05-01T14:02:47;2.25;;;1.80;;
45812;SDS011;31519;45.408;10.962;2023-05-01T14:05:17;6.38;;;1.98;;
45812;SDS011;31519;45.408;10.962;2023-05-01T14:07:55;5.35;;;2.17;;
45812;SDS011;31519;45.408;10.962;2023-05-01T14:10:25;8.38;;;1.88;;
45812;SDS011;31519;45.408;10.962;2023-05-01T14:12:56;4.68;;;1.75;;
45812;SDS011;31519;45.408;10.962;2023-05-01T14:15:25;3.13;;;1.77;;
45812;SDS011;31519;45.408;10.962;2023-05-01T14:17:55;6.13;;;1.83;;
45812;SDS011;31519;45.408;10.962;2023-05-01T14:20:25;2.90;;;1.77;;
45812;SDS011;31519;45.408;10.962;2023-05-01T14:22:53;9.68;;;1.90;;
45812;SDS011;31519;45.408;10.962;2023-05-01T14:25:23;4.07;;;2.28;;
45812;SDS011;31519;45.408;10.962;2023-05-01T14:27:52;6.05;;;2.10;;
45812;SDS011;31519;45.408;10.962;2023-05-01T14:32:54;8.07;;;1.77;;
45812;SDS011;31519;45.408;10.962;2023-05-01T14:35:23;6.65;;;2.00;;
45812;SDS011;31519;45.408;10.962;2023-05-01T14:37:51;2.45;;;1.67;;
45812;SDS011;31519;45.408;10.962;2023-05-01T14:40:24;2.97;;;2.00;;
45812;SDS011;31519;45.408;10.962;2023-05-01T14:42:56;9.90;;;2.40;;
45812;SDS011;31519;45.408;10.962;2023-05-01T14:45:25;3.78;;;1.75;;
45812;SDS011;31519;45.408;10.962;2023-05-01T14:47:53;7.57;;;1.73;;
45812;SDS011;31519;45.408;10.962;2023-05-01T14:50:22;4.97;;;1.45;;
45812;SDS011;31519;45.408;10.962;2023-05-01T14:52:54;2.20;;;1.85;;
45812;SDS011;31519;45.408;10.962;2023-05-01T14:55:30;4.47;;;1.70;;
45812;SDS011;31519;45.408;10.962;2023-05-01T14:58:01;3.88;;;1.70;;
45812;SDS011;31519;45.408;10.962;2023-05-01T15:00:30;4.88;;;1.67;;
45812;SDS011;31519;45.408;10.962;2023-05-01T15:02:58;3.55;;;1.70;;
45812;SDS011;31519;45.408;10.962;2023-05-01T15:05:27;2.78;;;1.40;;
45812;SDS011;31519;45.408;10.962;2023-05-01T15:07:55;2.63;;;1.38;;
45812;SDS011;31519;45.408;10.962;2023-05-01T15:10:24;1.92;;;1.27;;
45812;SDS011;31519;45.408;10.962;2023-05-01T15:12:52;2.22;;;1.90;;
45812;SDS011;31519;45.408;10.962;2023-05-01T15:15:20;2.55;;;1.77;;
45812;SDS011;31519;45.408;10.962;2023-05-01T15:17:48;4.22;;;1.70;;
45812;SDS011;31519;45.408;10.962;2023-05-01T15:20:17;1.50;;;1.40;;
45812;SDS011;31519;45.408;10.962;2023-05-01T15:22:45;3.72;;;1.75;;
45812;SDS011;31519;45.408;10.962;2023-05-01T15:25:13;5.28;;;2.10;;
45812;SDS011;31519;45.408;10.962;2023-05-01T15:27:43;5.18;;;1.80;;
45812;SDS011;31519;45.408;10.962;2023-05-01T15:30:13;1.83;;;1.38;;
45812;SDS011;31519;45.408;10.962;2023-05-01T15:32:41;3.55;;;1.67;;
45812;SDS011;31519;45.408;10.962;2023-05-01T15:35:10;6.68;;;2.45;;
45812;SDS011;31519;45.408;10.962;2023-05-01T15:37:39;3.38;;;2.20;;
45812;SDS011;31519;45.408;10.962;2023-05-01T15:40:07;5.20;;;2.08;;
45812;SDS011;31519;45.408;10.962;2023-05-01T15:42:36;1.92;;;1.83;;
45812;SDS011;31519;45.408;10.962;2023-05-01T15:45:04;4.75;;;2.30;;
45812;SDS011;31519;45.408;10.962;2023-05-01T15:47:32;3.30;;;2.00;;
45812;SDS011;31519;45.408;10.962;2023-05-01T15:50:01;2.67;;;1.50;;
45812;SDS011;31519;45.408;10.962;2023-05-01T15:52:29;5.45;;;1.73;;
45812;SDS011;31519;45.408;10.962;2023-05-01T15:54:58;2.63;;;1.55;;
45812;SDS011;31519;45.408;10.962;2023-05-01T15:57:26;2.95;;;1.65;;
45812;SDS011;31519;45.408;10.962;2023-05-01T15:59:54;1.90;;;1.45;;
45812;SDS011;31519;45.408;10.962;2023-05-01T16:02:22;4.43;;;1.55;;
45812;SDS011;31519;45.408;10.962;2023-05-01T16:04:52;1.83;;;1.17;;
45812;SDS011;31519;45.408;10.962;2023-05-01T16:07:20;1.48;;;1.38;;